GLRB Airport Information

Runway Information
Runway 04 Length 11000 ft width 150 ft
Elevation 29 ft Threshold 0 ft Heading 31
Runway 22 Length 11000 ft Width 150 ft
Elevation 25 ft Threshold 1200 ft Heading 211
Airport Frequencies
Type A/G Name A/G VOICE Frequency 345.2 MHZ
Type APP Name ROBERTS AP Frequency 124.5 MHZ
Type GND Name GND Frequency 121.9 MHZ
Type TWR Name ROBERTS TW Frequency 118.3 MHZ
Airport Navaids
Type NDB Name Monrovia Roberts Frequency 263 KHZ
Type NDB Name Monrovia Roberts Frequency 372 KHZ
Type VOR-DME Name Monrovia Roberts Frequency 113800 KHZ
Airport Weather Information & NOTAM
ADDS - METARS form results

(1750 UTC 13 July 2020)
Data provider http://aviationweather.gov/metar/data/
 
METAR text: GLRB 131730Z 20007KT 9999 BKN013 FEW023CB 26/25 Q1012 NOSIG RMK CB/S-SW
Conditions at: GLRB (ROBERTS INTL/MON, LR) observed 1730 UTC 13 July 2020
Temperature: 26.0°C (79°F)
Dewpoint: 25.0°C (77°F) [RH = 94%]
Pressure (altimeter): 29.88 inches Hg (1012.0 mb)
Winds: from the SSW (200 degrees) at 8 MPH (7 knots; 3.6 m/s)
Visibility: 6 or more miles (10+ km)
Ceiling: 1300 feet AGL
Clouds: broken clouds at 1300 feet AGL
few clouds at 2300 feet AGL
Weather: no significant weather observed at this time

METAR text: GLRB 131700Z 20009KT 9999 BKN014 FEW024CB 27/24 Q1012 NOSIG RMK CB/S-SW
Conditions at: GLRB (ROBERTS INTL/MON, LR) observed 1700 UTC 13 July 2020
Temperature: 27.0°C (81°F)
Dewpoint: 24.0°C (75°F) [RH = 84%]
Pressure (altimeter): 29.88 inches Hg (1012.0 mb)
Winds: from the SSW (200 degrees) at 10 MPH (9 knots; 4.6 m/s)
Visibility: 6 or more miles (10+ km)
Ceiling: 1400 feet AGL
Clouds: broken clouds at 1400 feet AGL
few clouds at 2400 feet AGL
Weather: no significant weather observed at this time

Forecast for: GLRB (ROBERTS INTL/MON, LR)
Text: TAF GLRB 131100Z 1312/1412 24010KT 9999 BKN015
Forecast period: 1200 to 2000 UTC 13 July 2020
Forecast type: FROM: standard forecast or significant change
Winds: from the WSW (240 degrees) at 12 MPH (10 knots; 5.1 m/s)
Visibility: 6 or more miles 10+ km)
Ceiling: 1500 feet AGL
Clouds: broken clouds at 1500 feet AGL
Weather: no significant weather forecast for this period
Text: TEMPO 1314/1318 20008KT 8000 SHRA BKN012 FEW023CB
Forecast period: 1400 to 1800 UTC 13 July 2020
Forecast type: TEMPORARY: The following changes expected for less than half the time period
Winds: from the SSW (200 degrees) at 9 MPH (8 knots; 4.1 m/s)
Visibility: 5 miles (8 km)
Ceiling: 1200 feet AGL
Clouds: broken clouds at 1200 feet AGL
few clouds at 2300 feet AGL
Weather: SHRA  (rain showers)
Text: BECMG 1320/1322 11004KT 9000
Forecast period: 2000 UTC 13 July 2020 to 1200 UTC 14 July 2020
Forecast type: BECOMING: Conditions expected to become as follows by 2200 UTC 13 July 2020
Winds: from the ESE (110 degrees) at 5 MPH (4 knots; 2.1 m/s)
Visibility: 6 miles (9 km)
Ceiling: 1500 feet AGL
Clouds: broken clouds at 1500 feet AGL
Weather: no significant weather forecast for this period